RYR76VT EIDW-LEBL
Flight info
| Callsign | RYR76VT |
|---|---|
| Flight time | N/A |
| Altitude | 35000 |
| Route | PESIT2J PESIT DCT BAKUR DCT GUBJE DCT GISOK DCT TACQI DCT MANIG DCT KORER UM616 TUPAR DCT CNA DCT SECHE DCT AGN DCT TOU DCT LOMRA DCT ROCAN DCT PUMAL |
| Aircraft | B738/M-SDE2E3FGHIRWXY/LB1 |
Departure
| Time | N/A |
|---|---|
| Airport | Dublin Airport (EIDW) |
Arrival
| Time | 2026-05-07 22:56 |
|---|---|
| Airport | Josep Tarradellas Barcelona-El Prat Airport (LEBL) |
| Time | Latitude | Longitude | Altitude | Speed | Heading |
|---|---|---|---|---|---|
| 2026-05-07 20:53 | 52.50746 | -5.83477 | 27990 ft | 431 kts | 157° |
| 2026-05-07 20:53 | 52.47986 | -5.81494 | 28329 ft | 433 kts | 157° |
| 2026-05-07 20:53 | 52.45220 | -5.79508 | 28647 ft | 435 kts | 157° |
| 2026-05-07 20:54 | 52.42437 | -5.77510 | 28944 ft | 437 kts | 157° |
| 2026-05-07 20:54 | 52.39638 | -5.75535 | 29232 ft | 439 kts | 160° |
| 2026-05-07 20:54 | 52.36783 | -5.73962 | 29535 ft | 440 kts | 164° |
| 2026-05-07 20:54 | 52.33848 | -5.72591 | 29953 ft | 438 kts | 165° |
| 2026-05-07 20:55 | 52.30920 | -5.71246 | 30410 ft | 435 kts | 165° |
| 2026-05-07 20:55 | 52.28016 | -5.69865 | 30769 ft | 435 kts | 164° |
| 2026-05-07 20:55 | 52.25114 | -5.68450 | 31104 ft | 435 kts | 164° |
| 2026-05-07 20:55 | 52.22254 | -5.66847 | 31466 ft | 435 kts | 159° |
| 2026-05-07 20:56 | 52.19463 | -5.64971 | 31828 ft | 434 kts | 158° |
| 2026-05-07 20:56 | 52.16692 | -5.63033 | 32168 ft | 433 kts | 158° |
| 2026-05-07 20:56 | 52.13919 | -5.61105 | 32501 ft | 432 kts | 158° |
| 2026-05-07 20:56 | 52.11188 | -5.59241 | 32827 ft | 432 kts | 158° |
| 2026-05-07 20:57 | 52.08412 | -5.57374 | 33165 ft | 431 kts | 159° |
| 2026-05-07 20:57 | 52.05644 | -5.55522 | 33466 ft | 430 kts | 159° |
| 2026-05-07 20:57 | 52.02895 | -5.53630 | 33737 ft | 430 kts | 156° |
| 2026-05-07 20:57 | 52.00185 | -5.51562 | 33997 ft | 430 kts | 155° |
| 2026-05-07 20:58 | 51.97505 | -5.49420 | 34283 ft | 430 kts | 155° |
| 2026-05-07 20:58 | 51.94829 | -5.47256 | 34549 ft | 430 kts | 155° |
| 2026-05-07 20:58 | 51.92148 | -5.45100 | 34751 ft | 431 kts | 155° |
| 2026-05-07 20:58 | 51.89451 | -5.42950 | 34962 ft | 432 kts | 155° |
| 2026-05-07 20:59 | 51.86779 | -5.40836 | 34991 ft | 435 kts | 155° |
| 2026-05-07 20:59 | 51.81336 | -5.36568 | 35002 ft | 433 kts | 155° |
| 2026-05-07 21:00 | 51.75937 | -5.32350 | 35015 ft | 430 kts | 155° |
| 2026-05-07 21:00 | 51.70553 | -5.28157 | 35014 ft | 429 kts | 155° |
| 2026-05-07 21:01 | 51.65227 | -5.24017 | 35016 ft | 428 kts | 155° |
| 2026-05-07 21:01 | 51.59869 | -5.19863 | 35021 ft | 428 kts | 155° |
| 2026-05-07 21:02 | 51.54506 | -5.15716 | 35022 ft | 428 kts | 155° |
| 2026-05-07 21:02 | 51.49257 | -5.11153 | 35014 ft | 432 kts | 144° |
| 2026-05-07 21:03 | 51.44742 | -5.04851 | 35018 ft | 435 kts | 139° |
| 2026-05-07 21:03 | 51.40247 | -4.98361 | 35017 ft | 436 kts | 139° |
| 2026-05-07 21:04 | 51.35704 | -4.91904 | 35023 ft | 437 kts | 140° |
| 2026-05-07 21:04 | 51.31121 | -4.85454 | 35028 ft | 439 kts | 140° |
| 2026-05-07 21:05 | 51.26524 | -4.79017 | 35027 ft | 439 kts | 140° |
| 2026-05-07 21:05 | 51.21957 | -4.72636 | 35024 ft | 439 kts | 140° |
| 2026-05-07 21:06 | 51.17361 | -4.66237 | 35028 ft | 438 kts | 140° |
| 2026-05-07 21:06 | 51.12769 | -4.59859 | 35027 ft | 438 kts | 140° |
| 2026-05-07 21:07 | 51.08190 | -4.53509 | 35027 ft | 436 kts | 140° |
| 2026-05-07 21:07 | 51.03611 | -4.47294 | 35022 ft | 434 kts | 145° |
| 2026-05-07 21:08 | 50.98564 | -4.42084 | 35024 ft | 432 kts | 149° |
| 2026-05-07 21:08 | 50.93435 | -4.37111 | 35032 ft | 432 kts | 149° |
| 2026-05-07 21:09 | 50.88330 | -4.32116 | 35031 ft | 432 kts | 149° |
| 2026-05-07 21:09 | 50.83276 | -4.27123 | 35036 ft | 431 kts | 149° |
| 2026-05-07 21:10 | 50.78198 | -4.22098 | 35038 ft | 431 kts | 149° |
| 2026-05-07 21:10 | 50.73113 | -4.17070 | 35039 ft | 431 kts | 149° |
| 2026-05-07 21:11 | 50.68026 | -4.12052 | 35038 ft | 432 kts | 149° |
| 2026-05-07 21:11 | 50.60400 | -4.04561 | 35040 ft | 433 kts | 149° |
| 2026-05-07 21:12 | 50.55281 | -3.99548 | 35037 ft | 433 kts | 149° |
| 2026-05-07 21:12 | 50.50158 | -3.94544 | 35037 ft | 433 kts | 149° |
| 2026-05-07 21:13 | 50.45032 | -3.89550 | 35038 ft | 434 kts | 149° |
| 2026-05-07 21:13 | 50.39935 | -3.84596 | 35035 ft | 434 kts | 149° |
| 2026-05-07 21:14 | 50.34801 | -3.79622 | 35039 ft | 434 kts | 149° |
| 2026-05-07 21:14 | 50.29668 | -3.74661 | 35038 ft | 433 kts | 149° |
| 2026-05-07 21:15 | 50.24536 | -3.69718 | 35038 ft | 433 kts | 149° |
| 2026-05-07 21:15 | 50.19406 | -3.64784 | 35036 ft | 433 kts | 149° |
| 2026-05-07 21:16 | 50.14307 | -3.59891 | 35032 ft | 433 kts | 149° |
| 2026-05-07 21:16 | 50.09182 | -3.54988 | 35036 ft | 432 kts | 149° |
| 2026-05-07 21:17 | 50.04056 | -3.50095 | 35033 ft | 432 kts | 149° |
| 2026-05-07 21:17 | 49.98937 | -3.45226 | 35026 ft | 431 kts | 149° |
| 2026-05-07 21:18 | 49.93852 | -3.40396 | 35028 ft | 431 kts | 150° |
| 2026-05-07 21:18 | 49.88738 | -3.35552 | 35035 ft | 431 kts | 150° |
| 2026-05-07 21:19 | 49.83623 | -3.30722 | 35038 ft | 431 kts | 150° |
| 2026-05-07 21:19 | 49.78423 | -3.26118 | 35017 ft | 430 kts | 158° |
| 2026-05-07 21:20 | 49.72720 | -3.23551 | 35036 ft | 427 kts | 167° |
| 2026-05-07 21:20 | 49.66962 | -3.21471 | 35031 ft | 428 kts | 168° |
| 2026-05-07 21:21 | 49.61165 | -3.19356 | 35028 ft | 428 kts | 167° |
| 2026-05-07 21:21 | 49.55377 | -3.17212 | 35031 ft | 429 kts | 167° |
| 2026-05-07 21:22 | 49.49572 | -3.15049 | 35026 ft | 430 kts | 167° |
| 2026-05-07 21:22 | 49.43800 | -3.12903 | 35019 ft | 430 kts | 167° |
| 2026-05-07 21:23 | 49.37992 | -3.10746 | 35017 ft | 430 kts | 167° |
| 2026-05-07 21:23 | 49.32176 | -3.08594 | 35020 ft | 430 kts | 167° |
| 2026-05-07 21:24 | 49.26343 | -3.06449 | 35019 ft | 431 kts | 168° |
| 2026-05-07 21:24 | 49.20539 | -3.04330 | 35017 ft | 432 kts | 168° |
| 2026-05-07 21:25 | 49.14699 | -3.02186 | 35018 ft | 432 kts | 167° |
| 2026-05-07 21:25 | 49.08855 | -3.00040 | 35020 ft | 432 kts | 167° |
| 2026-05-07 21:26 | 49.03010 | -2.97902 | 35017 ft | 432 kts | 168° |
| 2026-05-07 21:26 | 48.97212 | -2.95787 | 35013 ft | 431 kts | 168° |
| 2026-05-07 21:27 | 48.91382 | -2.93668 | 35017 ft | 430 kts | 168° |
| 2026-05-07 21:27 | 48.85568 | -2.91556 | 35017 ft | 429 kts | 168° |
| 2026-05-07 21:28 | 48.79753 | -2.89450 | 35023 ft | 429 kts | 168° |
| 2026-05-07 21:28 | 48.73983 | -2.87365 | 35014 ft | 429 kts | 168° |
| 2026-05-07 21:29 | 48.68176 | -2.85273 | 35021 ft | 429 kts | 168° |
| 2026-05-07 21:29 | 48.62360 | -2.83181 | 35021 ft | 430 kts | 167° |
| 2026-05-07 21:30 | 48.56546 | -2.81092 | 35019 ft | 429 kts | 168° |
| 2026-05-07 21:30 | 48.50728 | -2.79015 | 35021 ft | 429 kts | 168° |
| 2026-05-07 21:31 | 48.44954 | -2.76954 | 35019 ft | 430 kts | 168° |
| 2026-05-07 21:31 | 48.39135 | -2.74881 | 35015 ft | 429 kts | 168° |
| 2026-05-07 21:32 | 48.33325 | -2.72816 | 35019 ft | 429 kts | 168° |
| 2026-05-07 21:32 | 48.27550 | -2.70768 | 35018 ft | 429 kts | 168° |
| 2026-05-07 21:33 | 48.21736 | -2.68711 | 35021 ft | 429 kts | 168° |
| 2026-05-07 21:33 | 48.15924 | -2.66660 | 35021 ft | 429 kts | 168° |
| 2026-05-07 21:34 | 48.10102 | -2.64612 | 35013 ft | 430 kts | 168° |
| 2026-05-07 21:34 | 48.04286 | -2.62571 | 34999 ft | 429 kts | 168° |
| 2026-05-07 21:35 | 47.98505 | -2.60545 | 35001 ft | 430 kts | 168° |
| 2026-05-07 21:35 | 47.92675 | -2.58506 | 35005 ft | 431 kts | 168° |
| 2026-05-07 21:36 | 47.86839 | -2.56469 | 34997 ft | 430 kts | 168° |
| 2026-05-07 21:36 | 47.81014 | -2.54439 | 34997 ft | 430 kts | 168° |
| 2026-05-07 21:37 | 47.75225 | -2.52430 | 35000 ft | 430 kts | 168° |
| 2026-05-07 21:37 | 47.69531 | -2.49740 | 35008 ft | 433 kts | 152° |
| 2026-05-07 21:38 | 47.64856 | -2.44151 | 34998 ft | 436 kts | 133° |
| 2026-05-07 21:38 | 47.60742 | -2.37540 | 34984 ft | 435 kts | 143° |
| 2026-05-07 21:39 | 47.55904 | -2.32187 | 35004 ft | 434 kts | 145° |
| 2026-05-07 21:39 | 47.51053 | -2.26970 | 35001 ft | 435 kts | 145° |
| 2026-05-07 21:40 | 47.46183 | -2.21670 | 34995 ft | 435 kts | 145° |
| 2026-05-07 21:40 | 47.41325 | -2.16338 | 34998 ft | 435 kts | 145° |
| 2026-05-07 21:41 | 47.36483 | -2.11017 | 34986 ft | 434 kts | 145° |
| 2026-05-07 21:41 | 47.31669 | -2.05738 | 34986 ft | 435 kts | 145° |
| 2026-05-07 21:42 | 47.26820 | -2.00431 | 34996 ft | 435 kts | 145° |
| 2026-05-07 21:42 | 47.21957 | -1.95124 | 34986 ft | 435 kts | 145° |
| 2026-05-07 21:43 | 47.17095 | -1.89832 | 34985 ft | 435 kts | 145° |
| 2026-05-07 21:43 | 47.12267 | -1.84587 | 34998 ft | 434 kts | 145° |
| 2026-05-07 21:44 | 47.07401 | -1.79316 | 34999 ft | 434 kts | 145° |
| 2026-05-07 21:44 | 47.02539 | -1.74058 | 34987 ft | 434 kts | 145° |
| 2026-05-07 21:45 | 46.97678 | -1.68817 | 34985 ft | 433 kts | 145° |
| 2026-05-07 21:45 | 46.92856 | -1.63632 | 34986 ft | 433 kts | 145° |
| 2026-05-07 21:46 | 46.88002 | -1.58418 | 34993 ft | 433 kts | 145° |
| 2026-05-07 21:46 | 46.83145 | -1.53216 | 35000 ft | 433 kts | 145° |
| 2026-05-07 21:47 | 46.78280 | -1.48014 | 34986 ft | 434 kts | 145° |
| 2026-05-07 21:47 | 46.73405 | -1.42817 | 34985 ft | 435 kts | 145° |
| 2026-05-07 21:48 | 46.68555 | -1.37657 | 34997 ft | 434 kts | 146° |
| 2026-05-07 21:48 | 46.63669 | -1.32472 | 34999 ft | 435 kts | 146° |
| 2026-05-07 21:49 | 46.58778 | -1.27289 | 34991 ft | 435 kts | 146° |
| 2026-05-07 21:49 | 46.53911 | -1.22143 | 34986 ft | 435 kts | 146° |
| 2026-05-07 21:50 | 46.49009 | -1.16978 | 34983 ft | 435 kts | 146° |
| 2026-05-07 21:50 | 46.44113 | -1.11827 | 35002 ft | 435 kts | 146° |
| 2026-05-07 21:51 | 46.39213 | -1.06686 | 35002 ft | 434 kts | 146° |
| 2026-05-07 21:51 | 46.34324 | -1.01573 | 34982 ft | 433 kts | 146° |
| 2026-05-07 21:52 | 46.29475 | -0.96503 | 34999 ft | 433 kts | 146° |
| 2026-05-07 21:52 | 46.24595 | -0.91411 | 34986 ft | 433 kts | 146° |
| 2026-05-07 21:53 | 46.19713 | -0.86336 | 34994 ft | 432 kts | 146° |
| 2026-05-07 21:53 | 46.14830 | -0.81266 | 34984 ft | 432 kts | 146° |
| 2026-05-07 21:54 | 46.09977 | -0.76247 | 34985 ft | 432 kts | 146° |
| 2026-05-07 21:54 | 46.05085 | -0.71191 | 34992 ft | 433 kts | 146° |
| 2026-05-07 21:55 | 46.00186 | -0.66139 | 34980 ft | 433 kts | 146° |
| 2026-05-07 21:55 | 45.95276 | -0.61090 | 34982 ft | 434 kts | 146° |
| 2026-05-07 21:56 | 45.90398 | -0.56080 | 34986 ft | 434 kts | 146° |
| 2026-05-07 21:56 | 45.85476 | -0.51042 | 34975 ft | 435 kts | 146° |
| 2026-05-07 21:57 | 45.80545 | -0.46003 | 34972 ft | 435 kts | 146° |
| 2026-05-07 21:57 | 45.75612 | -0.40973 | 34970 ft | 436 kts | 146° |
| 2026-05-07 21:58 | 45.70703 | -0.35978 | 34971 ft | 436 kts | 146° |
| 2026-05-07 21:58 | 45.65737 | -0.31003 | 34960 ft | 435 kts | 150° |
| 2026-05-07 21:59 | 45.60365 | -0.27079 | 34960 ft | 433 kts | 156° |
| 2026-05-07 21:59 | 45.54901 | -0.23424 | 34967 ft | 434 kts | 156° |
| 2026-05-07 22:00 | 45.49486 | -0.19771 | 34958 ft | 434 kts | 156° |
| 2026-05-07 22:00 | 45.44041 | -0.16046 | 34965 ft | 434 kts | 155° |
| 2026-05-07 22:01 | 45.38601 | -0.12309 | 34964 ft | 434 kts | 155° |
| 2026-05-07 22:01 | 45.33155 | -0.08574 | 34962 ft | 435 kts | 155° |
| 2026-05-07 22:02 | 45.27744 | -0.04874 | 34961 ft | 435 kts | 155° |
| 2026-05-07 22:02 | 45.22302 | -0.01155 | 34963 ft | 434 kts | 155° |
| 2026-05-07 22:03 | 45.16853 | 0.02552 | 34968 ft | 434 kts | 156° |
| 2026-05-07 22:03 | 45.11418 | 0.06246 | 34964 ft | 433 kts | 156° |
| 2026-05-07 22:04 | 45.06026 | 0.09904 | 34960 ft | 432 kts | 156° |
| 2026-05-07 22:04 | 45.00626 | 0.13560 | 34960 ft | 430 kts | 156° |
| 2026-05-07 22:05 | 44.95243 | 0.17196 | 34968 ft | 428 kts | 156° |
| 2026-05-07 22:05 | 44.89870 | 0.20817 | 34972 ft | 427 kts | 156° |
| 2026-05-07 22:06 | 44.84553 | 0.24393 | 34971 ft | 426 kts | 156° |
| 2026-05-07 22:06 | 44.79202 | 0.27983 | 34974 ft | 425 kts | 156° |
| 2026-05-07 22:07 | 44.73854 | 0.31565 | 34961 ft | 426 kts | 156° |
| 2026-05-07 22:07 | 44.68505 | 0.35138 | 34962 ft | 426 kts | 156° |
| 2026-05-07 22:08 | 44.63192 | 0.38686 | 34961 ft | 426 kts | 156° |
| 2026-05-07 22:08 | 44.57835 | 0.42255 | 34967 ft | 426 kts | 156° |
| 2026-05-07 22:09 | 44.52467 | 0.45823 | 34966 ft | 427 kts | 156° |
| 2026-05-07 22:09 | 44.47082 | 0.49393 | 34965 ft | 428 kts | 156° |
| 2026-05-07 22:10 | 44.41727 | 0.52929 | 34960 ft | 429 kts | 156° |
| 2026-05-07 22:10 | 44.36315 | 0.56472 | 34968 ft | 429 kts | 157° |
| 2026-05-07 22:11 | 44.30892 | 0.60012 | 34963 ft | 431 kts | 157° |
| 2026-05-07 22:11 | 44.25465 | 0.63549 | 34962 ft | 431 kts | 157° |
| 2026-05-07 22:12 | 44.20070 | 0.67062 | 34963 ft | 430 kts | 157° |
| 2026-05-07 22:12 | 44.14651 | 0.70586 | 34960 ft | 430 kts | 157° |
| 2026-05-07 22:13 | 44.09243 | 0.74098 | 34960 ft | 428 kts | 157° |
| 2026-05-07 22:13 | 44.03844 | 0.77595 | 34961 ft | 427 kts | 157° |
| 2026-05-07 22:14 | 43.98502 | 0.81047 | 34967 ft | 426 kts | 157° |
| 2026-05-07 22:14 | 43.93134 | 0.84510 | 34975 ft | 425 kts | 157° |
| 2026-05-07 22:15 | 43.87778 | 0.88009 | 34971 ft | 426 kts | 155° |
| 2026-05-07 22:15 | 43.83442 | 0.91245 | 34972 ft | 426 kts | 153° |
| 2026-05-07 22:16 | 43.77440 | 0.95927 | 34973 ft | 426 kts | 153° |
| 2026-05-07 22:16 | 43.72265 | 0.99928 | 34973 ft | 426 kts | 153° |
| 2026-05-07 22:17 | 43.67963 | 1.03225 | 34972 ft | 426 kts | 153° |
| 2026-05-07 22:17 | 43.62775 | 1.07178 | 34972 ft | 426 kts | 154° |
| 2026-05-07 22:18 | 43.54146 | 1.13725 | 34974 ft | 426 kts | 154° |
| 2026-05-07 22:19 | 43.49787 | 1.17026 | 34964 ft | 427 kts | 154° |
| 2026-05-07 22:19 | 43.44611 | 1.20941 | 34960 ft | 427 kts | 154° |
| 2026-05-07 22:20 | 43.39404 | 1.24870 | 34966 ft | 427 kts | 154° |
| 2026-05-07 22:20 | 43.33345 | 1.29430 | 34962 ft | 427 kts | 154° |
| 2026-05-07 22:21 | 43.28987 | 1.32701 | 34961 ft | 427 kts | 154° |
| 2026-05-07 22:21 | 43.23810 | 1.36583 | 34963 ft | 426 kts | 154° |
| 2026-05-07 22:22 | 43.18609 | 1.40475 | 34971 ft | 426 kts | 154° |
| 2026-05-07 22:22 | 43.12561 | 1.44992 | 34963 ft | 426 kts | 154° |
| 2026-05-07 22:23 | 43.08210 | 1.48235 | 34962 ft | 425 kts | 154° |
| 2026-05-07 22:23 | 43.03058 | 1.52068 | 34950 ft | 421 kts | 154° |
| 2026-05-07 22:23 | 43.00518 | 1.53959 | 34840 ft | 412 kts | 154° |
| 2026-05-07 22:24 | 42.98020 | 1.55814 | 34577 ft | 404 kts | 154° |
| 2026-05-07 22:24 | 42.95564 | 1.57638 | 34209 ft | 400 kts | 154° |
| 2026-05-07 22:24 | 42.93126 | 1.59445 | 33857 ft | 397 kts | 155° |
| 2026-05-07 22:24 | 42.90714 | 1.61232 | 33486 ft | 393 kts | 155° |
| 2026-05-07 22:25 | 42.88314 | 1.63003 | 33127 ft | 390 kts | 155° |
| 2026-05-07 22:25 | 42.85964 | 1.64739 | 32769 ft | 388 kts | 155° |
| 2026-05-07 22:25 | 42.83601 | 1.66483 | 32400 ft | 385 kts | 155° |
| 2026-05-07 22:25 | 42.81248 | 1.68213 | 32045 ft | 383 kts | 155° |
| 2026-05-07 22:26 | 42.78910 | 1.69936 | 31687 ft | 381 kts | 155° |
| 2026-05-07 22:26 | 42.76584 | 1.71650 | 31321 ft | 380 kts | 155° |
| 2026-05-07 22:26 | 42.74263 | 1.73354 | 30969 ft | 378 kts | 155° |
| 2026-05-07 22:26 | 42.71962 | 1.75048 | 30607 ft | 375 kts | 155° |
| 2026-05-07 22:27 | 42.69673 | 1.76732 | 30250 ft | 372 kts | 155° |
| 2026-05-07 22:27 | 42.67404 | 1.78399 | 29906 ft | 369 kts | 155° |
| 2026-05-07 22:27 | 42.65151 | 1.80049 | 29549 ft | 367 kts | 155° |
| 2026-05-07 22:27 | 42.62947 | 1.81668 | 29196 ft | 363 kts | 155° |
| 2026-05-07 22:28 | 42.60731 | 1.83290 | 28846 ft | 361 kts | 155° |
| 2026-05-07 22:28 | 42.58526 | 1.84902 | 28482 ft | 359 kts | 155° |
| 2026-05-07 22:28 | 42.56333 | 1.86503 | 28132 ft | 357 kts | 155° |
| 2026-05-07 22:28 | 42.54157 | 1.88093 | 27767 ft | 355 kts | 155° |
| 2026-05-07 22:29 | 42.51988 | 1.89675 | 27429 ft | 352 kts | 155° |
| 2026-05-07 22:29 | 42.49835 | 1.91246 | 27078 ft | 351 kts | 155° |
| 2026-05-07 22:29 | 42.47694 | 1.92807 | 26716 ft | 349 kts | 154° |
| 2026-05-07 22:29 | 42.45586 | 1.94342 | 26382 ft | 348 kts | 154° |
| 2026-05-07 22:30 | 42.43461 | 1.95889 | 26027 ft | 346 kts | 154° |
| 2026-05-07 22:30 | 42.41345 | 1.97428 | 25686 ft | 345 kts | 154° |
| 2026-05-07 22:30 | 42.39235 | 1.98960 | 25335 ft | 343 kts | 154° |
| 2026-05-07 22:30 | 42.37127 | 2.00435 | 24980 ft | 339 kts | 160° |
| 2026-05-07 22:31 | 42.34866 | 2.01125 | 24720 ft | 331 kts | 176° |
| 2026-05-07 22:31 | 42.32579 | 2.01383 | 24458 ft | 332 kts | 177° |
| 2026-05-07 22:31 | 42.30253 | 2.01633 | 24183 ft | 339 kts | 177° |
| 2026-05-07 22:31 | 42.27919 | 2.01894 | 23916 ft | 343 kts | 176° |
| 2026-05-07 22:32 | 42.25533 | 2.02177 | 23619 ft | 344 kts | 176° |
| 2026-05-07 22:32 | 42.23161 | 2.02468 | 23329 ft | 342 kts | 176° |
| 2026-05-07 22:32 | 42.20796 | 2.02758 | 23046 ft | 341 kts | 176° |
| 2026-05-07 22:32 | 42.18438 | 2.02883 | 22733 ft | 338 kts | 189° |
| 2026-05-07 22:33 | 42.16213 | 2.01971 | 22477 ft | 333 kts | 208° |
| 2026-05-07 22:33 | 42.14314 | 2.00215 | 22224 ft | 331 kts | 219° |
| 2026-05-07 22:33 | 42.12560 | 1.98283 | 21948 ft | 330 kts | 220° |
| 2026-05-07 22:33 | 42.10808 | 1.96298 | 21673 ft | 329 kts | 220° |
| 2026-05-07 22:34 | 42.09067 | 1.94324 | 21394 ft | 327 kts | 220° |
| 2026-05-07 22:34 | 42.07320 | 1.92354 | 21131 ft | 327 kts | 220° |
| 2026-05-07 22:34 | 42.05577 | 1.90402 | 20861 ft | 326 kts | 220° |
| 2026-05-07 22:34 | 42.03835 | 1.88450 | 20589 ft | 325 kts | 220° |
| 2026-05-07 22:35 | 42.02101 | 1.86521 | 20316 ft | 324 kts | 220° |
| 2026-05-07 22:35 | 42.00367 | 1.84607 | 20065 ft | 321 kts | 219° |
| 2026-05-07 22:35 | 41.98638 | 1.82701 | 20011 ft | 320 kts | 220° |
| 2026-05-07 22:35 | 41.96939 | 1.80827 | 19978 ft | 311 kts | 220° |
| 2026-05-07 22:36 | 41.95324 | 1.79046 | 19963 ft | 299 kts | 220° |
| 2026-05-07 22:36 | 41.93747 | 1.77309 | 19960 ft | 287 kts | 220° |
| 2026-05-07 22:36 | 41.92235 | 1.75645 | 19905 ft | 277 kts | 220° |
| 2026-05-07 22:36 | 41.90713 | 1.73970 | 19189 ft | 291 kts | 220° |
| 2026-05-07 22:37 | 41.89083 | 1.72176 | 18355 ft | 311 kts | 220° |
| 2026-05-07 22:37 | 41.87418 | 1.70346 | 18073 ft | 310 kts | 220° |
| 2026-05-07 22:37 | 41.85749 | 1.68514 | 17817 ft | 310 kts | 220° |
| 2026-05-07 22:37 | 41.84076 | 1.66680 | 17543 ft | 311 kts | 220° |
| 2026-05-07 22:38 | 41.82401 | 1.64841 | 17282 ft | 311 kts | 220° |
| 2026-05-07 22:38 | 41.80752 | 1.63033 | 17034 ft | 311 kts | 220° |
| 2026-05-07 22:38 | 41.79078 | 1.61197 | 16774 ft | 310 kts | 220° |
| 2026-05-07 22:38 | 41.77406 | 1.59368 | 16519 ft | 310 kts | 220° |
| 2026-05-07 22:39 | 41.75736 | 1.57542 | 16260 ft | 310 kts | 219° |
| 2026-05-07 22:39 | 41.74052 | 1.55733 | 15995 ft | 310 kts | 215° |
| 2026-05-07 22:39 | 41.72094 | 1.54553 | 15726 ft | 311 kts | 194° |
| 2026-05-07 22:39 | 41.69979 | 1.53985 | 15491 ft | 309 kts | 191° |
| 2026-05-07 22:40 | 41.67872 | 1.53480 | 15230 ft | 308 kts | 191° |
| 2026-05-07 22:40 | 41.65762 | 1.52974 | 14973 ft | 307 kts | 191° |
| 2026-05-07 22:40 | 41.63695 | 1.52466 | 14728 ft | 305 kts | 191° |
| 2026-05-07 22:40 | 41.61608 | 1.51942 | 14464 ft | 304 kts | 191° |
| 2026-05-07 22:41 | 41.59531 | 1.51418 | 14220 ft | 303 kts | 191° |
| 2026-05-07 22:41 | 41.57466 | 1.50897 | 13967 ft | 302 kts | 191° |
| 2026-05-07 22:41 | 41.55409 | 1.50382 | 13715 ft | 300 kts | 189° |
| 2026-05-07 22:41 | 41.53330 | 1.50353 | 13455 ft | 299 kts | 172° |
| 2026-05-07 22:42 | 41.51289 | 1.50821 | 13238 ft | 297 kts | 170° |
| 2026-05-07 22:42 | 41.49284 | 1.51315 | 12981 ft | 296 kts | 170° |
| 2026-05-07 22:42 | 41.47240 | 1.51813 | 12736 ft | 295 kts | 170° |
| 2026-05-07 22:42 | 41.45251 | 1.52283 | 12498 ft | 293 kts | 170° |
| 2026-05-07 22:43 | 41.43245 | 1.52747 | 12252 ft | 292 kts | 171° |
| 2026-05-07 22:43 | 41.41249 | 1.53201 | 12012 ft | 291 kts | 171° |
| 2026-05-07 22:43 | 41.39254 | 1.53651 | 11771 ft | 290 kts | 171° |
| 2026-05-07 22:43 | 41.37271 | 1.54096 | 11529 ft | 289 kts | 171° |
| 2026-05-07 22:44 | 41.35291 | 1.54539 | 11291 ft | 288 kts | 171° |
| 2026-05-07 22:44 | 41.33309 | 1.54970 | 11052 ft | 288 kts | 171° |
| 2026-05-07 22:44 | 41.31335 | 1.55361 | 10807 ft | 287 kts | 172° |
| 2026-05-07 22:44 | 41.29384 | 1.55739 | 10570 ft | 287 kts | 172° |
| 2026-05-07 22:45 | 41.27413 | 1.56120 | 10331 ft | 286 kts | 172° |
| 2026-05-07 22:45 | 41.25444 | 1.56502 | 10093 ft | 286 kts | 172° |
| 2026-05-07 22:45 | 41.23480 | 1.56885 | 9856 ft | 285 kts | 172° |
| 2026-05-07 22:45 | 41.21519 | 1.57269 | 9609 ft | 285 kts | 172° |
| 2026-05-07 22:46 | 41.19559 | 1.57651 | 9382 ft | 284 kts | 172° |
| 2026-05-07 22:46 | 41.17602 | 1.58033 | 9145 ft | 284 kts | 172° |
| 2026-05-07 22:46 | 41.15709 | 1.58726 | 8876 ft | 284 kts | 150° |
| 2026-05-07 22:46 | 41.14293 | 1.60450 | 8669 ft | 281 kts | 122° |
| 2026-05-07 22:47 | 41.13569 | 1.62828 | 8450 ft | 278 kts | 99° |
| 2026-05-07 22:47 | 41.13415 | 1.65355 | 8092 ft | 274 kts | 91° |
| 2026-05-07 22:47 | 41.13395 | 1.67867 | 7770 ft | 267 kts | 90° |
| 2026-05-07 22:47 | 41.13376 | 1.70283 | 7543 ft | 258 kts | 91° |
| 2026-05-07 22:48 | 41.13344 | 1.72632 | 7287 ft | 251 kts | 91° |
| 2026-05-07 22:48 | 41.13248 | 1.74912 | 6988 ft | 245 kts | 96° |
| 2026-05-07 22:48 | 41.13048 | 1.77145 | 6647 ft | 243 kts | 97° |
| 2026-05-07 22:48 | 41.12839 | 1.79328 | 6294 ft | 241 kts | 97° |
| 2026-05-07 22:49 | 41.12631 | 1.81526 | 5929 ft | 239 kts | 97° |
| 2026-05-07 22:49 | 41.12429 | 1.83710 | 5572 ft | 238 kts | 97° |
| 2026-05-07 22:49 | 41.12232 | 1.85855 | 5467 ft | 226 kts | 97° |
| 2026-05-07 22:49 | 41.12050 | 1.87853 | 5346 ft | 211 kts | 97° |
| 2026-05-07 22:50 | 41.11879 | 1.89746 | 5041 ft | 205 kts | 97° |
| 2026-05-07 22:50 | 41.11711 | 1.91613 | 4667 ft | 203 kts | 97° |
| 2026-05-07 22:50 | 41.11544 | 1.93468 | 4295 ft | 202 kts | 97° |
| 2026-05-07 22:50 | 41.11378 | 1.95311 | 3928 ft | 200 kts | 97° |
| 2026-05-07 22:51 | 41.11212 | 1.97142 | 3560 ft | 200 kts | 97° |
| 2026-05-07 22:51 | 41.11062 | 1.98926 | 3239 ft | 196 kts | 91° |
| 2026-05-07 22:51 | 41.11474 | 2.00598 | 2805 ft | 196 kts | 44° |
| 2026-05-07 22:51 | 41.12668 | 2.01337 | 2529 ft | 189 kts | 15° |
| 2026-05-07 22:52 | 41.13883 | 2.01801 | 2388 ft | 177 kts | 18° |
| 2026-05-07 22:52 | 41.15053 | 2.02255 | 2127 ft | 171 kts | 18° |
| 2026-05-07 22:52 | 41.16162 | 2.02710 | 2042 ft | 165 kts | 19° |
| 2026-05-07 22:52 | 41.17212 | 2.03203 | 2015 ft | 157 kts | 19° |
| 2026-05-07 22:53 | 41.18218 | 2.03657 | 2049 ft | 154 kts | 19° |
| 2026-05-07 22:53 | 41.19220 | 2.04113 | 1959 ft | 153 kts | 19° |
| 2026-05-07 22:53 | 41.20220 | 2.04571 | 1777 ft | 151 kts | 19° |
| 2026-05-07 22:53 | 41.21202 | 2.05019 | 1582 ft | 148 kts | 19° |
| 2026-05-07 22:54 | 41.22165 | 2.05460 | 1400 ft | 146 kts | 19° |
| 2026-05-07 22:54 | 41.23129 | 2.05901 | 1202 ft | 146 kts | 19° |
| 2026-05-07 22:54 | 41.24091 | 2.06340 | 1006 ft | 146 kts | 19° |
| 2026-05-07 22:54 | 41.25049 | 2.06779 | 812 ft | 145 kts | 19° |
| 2026-05-07 22:55 | 41.26006 | 2.07198 | 645 ft | 145 kts | 17° |
| 2026-05-07 22:55 | 41.26948 | 2.07630 | 420 ft | 146 kts | 21° |
| 2026-05-07 22:55 | 41.27889 | 2.08072 | 262 ft | 140 kts | 19° |
| 2026-05-07 22:55 | 41.28811 | 2.08500 | 58 ft | 139 kts | 19° |
| 2026-05-07 22:56 | 41.29600 | 2.08858 | 18 ft | 91 kts | 19° |
| 2026-05-07 22:56 | 41.30033 | 2.09062 | 17 ft | 55 kts | 21° |
| 2026-05-07 22:56 | 41.30371 | 2.09206 | 18 ft | 42 kts | 19° |
| 2026-05-07 22:56 | 41.30580 | 2.09269 | 22 ft | 22 kts | 338° |
| 2026-05-07 22:57 | 41.30671 | 2.09172 | 18 ft | 12 kts | 314° |
| 2026-05-07 22:57 | 41.30667 | 2.09089 | 18 ft | 9 kts | 225° |
| 2026-05-07 22:57 | 41.30611 | 2.09057 | 17 ft | 9 kts | 196° |
| 2026-05-07 22:57 | 41.30554 | 2.09030 | 17 ft | 9 kts | 201° |
| 2026-05-07 22:58 | 41.30498 | 2.09005 | 17 ft | 9 kts | 199° |
| 2026-05-07 22:58 | 41.30426 | 2.08971 | 18 ft | 13 kts | 206° |
| 2026-05-07 22:58 | 41.30379 | 2.08873 | 16 ft | 13 kts | 245° |
| 2026-05-07 22:58 | 41.30342 | 2.08766 | 19 ft | 13 kts | 247° |
| 2026-05-07 22:59 | 41.30306 | 2.08662 | 18 ft | 12 kts | 245° |
| 2026-05-07 22:59 | 41.30271 | 2.08561 | 17 ft | 12 kts | 244° |
| 2026-05-07 22:59 | 41.30238 | 2.08463 | 18 ft | 12 kts | 249° |
| 2026-05-07 22:59 | 41.30208 | 2.08365 | 18 ft | 11 kts | 250° |
| 2026-05-07 23:00 | 41.30176 | 2.08271 | 18 ft | 11 kts | 244° |
| 2026-05-07 23:00 | 41.30142 | 2.08180 | 17 ft | 11 kts | 246° |
| 2026-05-07 23:00 | 41.30111 | 2.08087 | 18 ft | 11 kts | 246° |
| 2026-05-07 23:00 | 41.30080 | 2.07999 | 16 ft | 10 kts | 244° |
| 2026-05-07 23:01 | 41.30050 | 2.07911 | 18 ft | 10 kts | 244° |
| 2026-05-07 23:01 | 41.30020 | 2.07824 | 16 ft | 10 kts | 246° |
| 2026-05-07 23:01 | 41.29989 | 2.07734 | 15 ft | 12 kts | 245° |
| 2026-05-07 23:01 | 41.29954 | 2.07632 | 15 ft | 13 kts | 245° |
| 2026-05-07 23:02 | 41.29928 | 2.07521 | 15 ft | 13 kts | 291° |
| 2026-05-07 23:02 | 41.29965 | 2.07486 | 17 ft | 1 kts | 287° |
| 2026-05-07 23:02 | 41.29963 | 2.07470 | 17 ft | 3 kts | 261° |
| 2026-05-07 23:02 | 41.29977 | 2.07443 | 18 ft | 5 kts | 332° |
| 2026-05-07 23:03 | 41.30017 | 2.07439 | 19 ft | 6 kts | 11° |
| 2026-05-07 23:03 | 41.30037 | 2.07445 | 20 ft | 0 kts | 14° |